Time;durP1;ratioP1;P1;durP2;ratioP2;P2;SDS_P1;SDS_P2;PMS_P1;PMS_P2;Temp;Humidity;BMP_temperature;BMP_pressure;BME280_temperature;BME280_humidity;BME280_pressure;Samples;Min_cycle;Max_cycle;Signal;HPM_P1;HPM_P2
2022/01/19 00:01:39;;;;;;;21.35;12.95;;;;;;;5.95;93.71;103192.56;5032426;28;20054;-51
2022/01/19 00:04:07;;;;;;;22.80;13.50;;;;;;;5.95;93.72;103189.03;5031888;28;20037;-53
2022/01/19 00:06:35;;;;;;;26.52;13.23;;;;;;;5.95;93.57;103187.16;5033473;28;20041;-50
2022/01/19 00:09:02;;;;;;;21.95;12.95;;;;;;;5.90;93.41;103189.53;5032972;28;20057;-52
2022/01/19 00:11:30;;;;;;;23.48;12.43;;;;;;;5.84;94.03;103179.41;5033158;28;20055;-54
2022/01/19 00:13:58;;;;;;;23.65;12.90;;;;;;;5.81;93.82;103187.91;5033144;28;20045;-52
2022/01/19 00:16:26;;;;;;;26.17;13.32;;;;;;;5.79;93.82;103184.53;5034830;28;20064;-53
2022/01/19 00:18:54;;;;;;;20.40;13.00;;;;;;;5.73;93.56;103185.25;5035380;28;20433;-54
2022/01/19 00:21:22;;;;;;;24.63;13.13;;;;;;;5.66;93.46;103192.38;5031834;28;20074;-59
2022/01/19 00:23:49;;;;;;;23.83;13.02;;;;;;;5.53;93.97;103174.88;5031828;28;20056;-54
2022/01/19 00:26:17;;;;;;;23.85;12.82;;;;;;;5.49;94.62;103168.13;5032109;28;20045;-55
2022/01/19 00:28:44;;;;;;;19.25;11.57;;;;;;;5.48;95.01;103152.94;5033130;28;20435;-54
2022/01/19 00:31:12;;;;;;;23.60;12.30;;;;;;;5.50;94.39;103129.22;5031782;28;20051;-49
2022/01/19 00:33:40;;;;;;;20.95;11.38;;;;;;;5.53;94.25;103109.09;5032726;28;20053;-54
2022/01/19 00:36:08;;;;;;;20.77;12.00;;;;;;;5.56;94.06;103097.97;5033239;28;20041;-52
2022/01/19 00:38:35;;;;;;;22.67;12.15;;;;;;;5.57;93.42;103093.38;5031579;28;20045;-56
2022/01/19 00:41:03;;;;;;;20.15;12.07;;;;;;;5.53;93.12;103080.22;5031582;28;20034;-54
2022/01/19 00:43:31;;;;;;;22.60;12.40;;;;;;;5.47;93.36;103080.09;5033010;28;20041;-53
2022/01/19 00:45:58;;;;;;;21.15;12.38;;;;;;;5.41;93.48;103089.78;5031444;28;20182;-52
2022/01/19 00:48:27;;;;;;;21.52;12.38;;;;;;;5.42;94.13;103094.13;5032556;28;20046;-50
2022/01/19 00:50:58;;;;;;;23.25;11.93;;;;;;;5.43;93.85;103101.22;5032612;28;20037;-48
2022/01/19 00:53:26;;;;;;;21.33;12.65;;;;;;;5.43;93.84;103112.03;5031441;28;20041;-52
2022/01/19 00:55:53;;;;;;;23.00;13.05;;;;;;;5.42;93.79;103110.34;5032434;28;20042;-50
2022/01/19 00:58:21;;;;;;;19.95;11.73;;;;;;;5.42;94.12;103126.59;5032485;28;20041;-52
2022/01/19 01:00:49;;;;;;;21.50;12.63;;;;;;;5.48;93.94;103134.00;5032578;28;20045;-51
2022/01/19 01:03:17;;;;;;;22.75;12.63;;;;;;;5.52;93.99;103129.91;5032600;28;20069;-49
2022/01/19 01:05:46;;;;;;;21.50;11.68;;;;;;;5.52;93.79;103110.13;5032040;28;20459;-52
2022/01/19 01:08:13;;;;;;;23.98;12.52;;;;;;;5.51;94.03;103101.19;5032737;28;20048;-50
2022/01/19 01:10:42;;;;;;;22.42;12.85;;;;;;;5.50;94.56;103083.25;5033237;28;20053;-52
2022/01/19 01:18:28;;;;;;;25.08;12.77;;;;;;;5.53;94.40;103064.00;5031676;28;20041;-56
2022/01/19 01:21:00;;;;;;;23.10;12.40;;;;;;;5.54;94.00;103057.56;5031072;28;20065;-52
2022/01/19 01:23:31;;;;;;;19.85;11.60;;;;;;;5.54;94.39;103054.84;5035190;28;20476;-56
2022/01/19 01:25:59;;;;;;;19.92;12.18;;;;;;;5.49;93.48;103057.25;5035214;28;20047;-52
2022/01/19 01:28:27;;;;;;;21.55;12.20;;;;;;;5.42;93.42;103053.59;5035278;28;20132;-55
2022/01/19 01:30:55;;;;;;;17.23;10.73;;;;;;;5.37;93.16;103037.06;5017894;28;20030;-54
2022/01/19 01:33:23;;;;;;;22.50;11.82;;;;;;;5.26;92.93;103029.34;5018794;28;20074;-56
2022/01/19 01:35:51;;;;;;;22.27;11.82;;;;;;;5.18;93.55;103013.19;5034983;28;20107;-50
2022/01/19 01:38:21;;;;;;;19.48;11.25;;;;;;;5.17;94.27;102993.44;5035177;28;20042;-50
2022/01/19 01:41:12;;;;;;;18.00;10.63;;;;;;;5.16;94.05;102969.28;5034746;28;20068;-52
2022/01/19 01:43:42;;;;;;;20.42;11.60;;;;;;;5.17;94.45;102961.03;5034845;28;20037;-52
2022/01/19 01:46:23;;;;;;;20.20;12.35;;;;;;;5.22;93.99;102946.94;5035036;28;20041;-51
2022/01/19 01:48:51;;;;;;;18.90;11.35;;;;;;;5.15;94.16;102951.38;5034856;28;20044;-54
2022/01/19 01:54:08;;;;;;;22.20;13.43;;;;;;;5.24;95.21;102958.41;5034485;28;20051;-56
2022/01/19 01:56:35;;;;;;;22.38;14.75;;;;;;;5.26;94.98;102954.50;5034648;28;20095;-54
2022/01/19 01:59:05;;;;;;;30.67;18.80;;;;;;;5.20;94.94;102965.22;5034633;28;20067;-54
2022/01/19 02:01:43;;;;;;;29.88;18.67;;;;;;;5.10;95.06;102966.28;5016633;28;20042;-56
2022/01/19 02:04:13;;;;;;;28.27;18.42;;;;;;;5.06;95.84;102978.47;5027381;28;20053;-54
2022/01/19 02:07:05;;;;;;;33.75;21.13;;;;;;;5.05;96.12;102982.19;5035079;28;20076;-52
2022/01/19 02:09:38;;;;;;;32.67;20.63;;;;;;;4.95;96.59;102986.97;5018174;28;20393;-56
2022/01/19 02:23:25;;;;;;;31.60;19.98;;;;;;;5.01;96.63;102924.13;5034785;28;20056;-51
2022/01/19 02:25:56;;;;;;;31.23;19.75;;;;;;;4.96;96.23;102926.53;5035506;28;20440;-55
2022/01/19 02:40:10;;;;;;;29.83;19.35;;;;;;;4.89;94.99;102876.94;5030858;28;20125;-57
2022/01/19 02:40:11;;;;;;;31.77;19.70;;;;;;;4.83;95.22;102877.66;5028544;28;20107;-55
2022/01/19 02:50:56;;;;;;;;;;;;;;;5.02;95.35;102855.56;5033908;28;20048;-55
2022/01/19 02:53:23;;;;;;;30.20;19.88;;;;;;;5.05;94.02;102849.81;5034621;28;19921;-56
2022/01/19 02:55:51;;;;;;;28.20;18.88;;;;;;;5.04;93.91;102834.59;5034139;28;20042;-56
2022/01/19 02:58:22;;;;;;;27.02;17.73;;;;;;;4.99;93.43;102838.88;5033545;28;20037;-50
2022/01/19 03:09:09;;;;;;;26.75;17.42;;;;;;;4.94;93.30;102788.09;5015918;28;20116;-54
2022/01/19 03:11:36;;;;;;;25.42;17.40;;;;;;;4.89;92.91;102782.41;5013713;28;20065;-50
2022/01/19 03:14:07;;;;;;;25.67;17.00;;;;;;;4.89;93.51;102779.69;5017009;28;20044;-49
2022/01/19 03:16:36;;;;;;;26.25;17.08;;;;;;;4.91;93.17;102773.09;5015047;28;20053;-55
2022/01/19 03:19:06;;;;;;;27.30;16.25;;;;;;;4.91;93.26;102777.66;5013776;28;20038;-51
2022/01/19 03:21:34;;;;;;;21.10;15.60;;;;;;;4.91;93.32;102778.50;5027926;28;20120;-51
2022/01/19 03:24:02;;;;;;;25.92;16.75;;;;;;;4.96;92.96;102787.94;5034601;28;20053;-53
2022/01/19 03:26:30;;;;;;;25.77;17.00;;;;;;;4.98;92.67;102775.91;5032951;28;20039;-54
2022/01/19 03:29:15;;;;;;;22.83;14.93;;;;;;;5.01;92.58;102772.00;5032780;28;20103;-54
2022/01/19 03:31:44;;;;;;;24.42;15.43;;;;;;;5.02;92.75;102763.69;5032830;28;20049;-56
2022/01/19 03:34:12;;;;;;;25.58;16.30;;;;;;;5.03;92.58;102760.00;5016278;28;20046;-56
2022/01/19 03:36:42;;;;;;;24.25;16.13;;;;;;;5.05;92.01;102757.09;5015689;28;20052;-55
2022/01/19 03:39:11;;;;;;;22.75;14.70;;;;;;;4.99;91.56;102747.03;5016085;28;20046;-49
2022/01/19 03:41:39;;;;;;;23.27;14.65;;;;;;;4.95;91.56;102748.41;5012796;28;20072;-54
2022/01/19 03:44:08;;;;;;;24.15;16.15;;;;;;;4.92;91.21;102741.50;5011420;28;20042;-48
2022/01/19 03:46:46;;;;;;;24.38;14.63;;;;;;;4.87;91.19;102738.53;5025348;28;20072;-57
2022/01/19 03:49:23;;;;;;;22.30;14.75;;;;;;;4.87;91.43;102738.53;5034186;28;20056;-50
2022/01/19 03:52:00;;;;;;;29.27;15.93;;;;;;;4.88;91.53;102732.09;5032652;28;20057;-54
2022/01/19 03:54:33;;;;;;;22.52;13.73;;;;;;;4.87;91.40;102727.72;5033332;28;20053;-51
2022/01/19 03:57:00;;;;;;;21.13;13.25;;;;;;;4.88;91.38;102730.25;5032480;28;20514;-57
2022/01/19 03:59:31;;;;;;;24.30;14.73;;;;;;;4.86;90.98;102720.66;5032277;28;20496;-57
2022/01/19 04:01:59;;;;;;;22.75;14.70;;;;;;;4.84;90.95;102718.13;5032380;28;20049;-55
2022/01/19 04:07:37;;;;;;;22.92;13.85;;;;;;;4.83;90.40;102712.91;4981964;28;20052;-52
2022/01/19 04:10:06;;;;;;;25.55;15.20;;;;;;;4.79;90.44;102719.72;5007988;28;20133;-54
2022/01/19 04:15:15;;;;;;;24.60;15.25;;;;;;;4.75;90.70;102713.00;4991695;28;20050;-56
2022/01/19 04:17:53;;;;;;;20.25;14.30;;;;;;;4.74;90.51;102711.28;4978998;28;20039;-58
2022/01/19 04:20:24;;;;;;;23.10;14.38;;;;;;;4.73;90.74;102715.84;4979708;28;20444;-57
2022/01/19 04:22:56;;;;;;;23.25;14.00;;;;;;;4.73;90.13;102715.03;4995248;28;20050;-55
2022/01/19 04:25:24;;;;;;;21.27;13.55;;;;;;;4.68;90.23;102719.09;5010986;28;20052;-56
2022/01/19 04:27:52;;;;;;;19.60;12.75;;;;;;;4.64;90.06;102707.00;5010970;28;20052;-53
2022/01/19 04:30:21;;;;;;;22.85;13.60;;;;;;;4.62;89.93;102706.34;4994244;28;20086;-54
2022/01/19 04:35:30;;;;;;;20.02;13.00;;;;;;;4.59;90.25;102704.00;5010736;28;20045;-56
2022/01/19 04:44:04;;;;;;;20.55;14.07;;;;;;;4.60;90.46;102694.88;4978544;28;20638;-52
2022/01/19 05:06:07;;;;;;;21.27;13.25;;;;;;;4.52;89.91;102681.44;5013624;28;20046;-56
2022/01/19 05:13:53;;;;;;;19.42;12.25;;;;;;;4.57;90.15;102683.59;5031098;28;20129;-53
2022/01/19 05:16:27;;;;;;;20.60;14.48;;;;;;;4.55;90.16;102694.59;5031273;28;20047;-56
2022/01/19 05:18:55;;;;;;;20.02;13.13;;;;;;;4.55;90.30;102693.75;5031339;28;20496;-53
2022/01/19 05:21:23;;;;;;;21.42;13.00;;;;;;;4.53;90.26;102693.09;5031893;28;20125;-57
2022/01/19 05:24:18;;;;;;;23.20;13.15;;;;;;;4.53;91.46;102688.53;5031198;28;20045;-52
2022/01/19 05:27:07;;;;;;;24.60;14.68;;;;;;;4.51;91.08;102685.19;5031226;28;20038;-55
2022/01/19 05:29:36;;;;;;;27.73;15.38;;;;;;;4.49;91.25;102681.81;5031051;28;20064;-56
2022/01/19 05:32:05;;;;;;;24.00;15.85;;;;;;;4.47;91.52;102686.53;5030376;28;20045;-57
2022/01/19 05:34:37;;;;;;;25.38;16.75;;;;;;;4.45;91.36;102677.81;5030623;28;20088;-58
2022/01/19 05:37:14;;;;;;;25.52;16.85;;;;;;;4.42;91.15;102683.56;5030959;28;20140;-55
2022/01/19 05:39:50;;;;;;;29.52;19.55;;;;;;;4.41;91.38;102680.03;5031312;28;20049;-52
2022/01/19 05:42:41;;;;;;;22.20;15.32;;;;;;;4.42;91.36;102672.75;5032457;28;20056;-51
2022/01/19 05:45:09;;;;;;;28.73;19.20;;;;;;;4.37;90.59;102673.31;5032408;28;20439;-50
2022/01/19 05:47:37;;;;;;;27.60;17.55;;;;;;;4.38;91.63;102671.47;5031299;28;20115;-56
2022/01/19 05:50:05;;;;;;;25.27;15.73;;;;;;;4.40;91.35;102674.78;5031036;28;20053;-57
2022/01/19 05:52:33;;;;;;;29.52;20.67;;;;;;;4.40;91.42;102669.41;5030442;28;20046;-57
2022/01/19 05:55:01;;;;;;;24.90;16.83;;;;;;;4.37;91.46;102667.06;5030371;28;20042;-53
2022/01/19 05:57:29;;;;;;;27.52;15.85;;;;;;;4.40;91.70;102666.69;5030966;28;20041;-52
2022/01/19 05:59:56;;;;;;;24.77;16.95;;;;;;;4.38;91.40;102664.19;5031249;28;20041;-57
2022/01/19 06:02:24;;;;;;;28.77;18.88;;;;;;;4.39;91.22;102667.72;5031124;28;20049;-50
2022/01/19 06:04:52;;;;;;;28.48;17.88;;;;;;;4.37;90.82;102661.69;5031390;28;20064;-51
2022/01/19 06:07:29;;;;;;;27.58;17.45;;;;;;;4.37;90.76;102657.13;5031502;28;20041;-54
2022/01/19 06:10:05;;;;;;;25.20;16.38;;;;;;;4.38;91.32;102649.88;5034555;28;20112;-54
2022/01/19 06:12:41;;;;;;;21.45;14.95;;;;;;;4.38;91.05;102657.97;5034043;28;20542;-57
2022/01/19 06:15:09;;;;;;;22.35;14.70;;;;;;;4.41;91.11;102652.22;5034462;28;20502;-57
2022/01/19 06:17:36;;;;;;;21.70;14.75;;;;;;;4.37;91.14;102656.28;5034549;28;20068;-53
2022/01/19 06:20:08;;;;;;;25.65;17.90;;;;;;;4.33;91.26;102649.56;5034409;28;20466;-54
2022/01/19 06:22:35;;;;;;;23.83;17.00;;;;;;;4.37;91.82;102645.47;5034130;28;20045;-58
2022/01/19 06:25:04;;;;;;;15.35;10.73;;;;;;;4.47;93.16;102637.97;5033569;28;20512;-49
2022/01/19 06:27:31;;;;;;;21.38;13.15;;;;;;;4.54;94.44;102629.97;5032697;28;20049;-55
2022/01/19 06:30:00;;;;;;;17.45;11.43;;;;;;;4.58;93.81;102626.72;5034174;28;20046;-51
2022/01/19 06:32:28;;;;;;;23.98;16.30;;;;;;;4.55;93.33;102627.09;5034298;28;20045;-49
2022/01/19 06:34:56;;;;;;;19.02;13.55;;;;;;;4.62;94.57;102628.06;5033808;28;20464;-54
2022/01/19 06:37:24;;;;;;;19.00;12.52;;;;;;;4.59;94.26;102617.59;5035409;28;20063;-53
2022/01/19 06:39:58;;;;;;;19.65;13.35;;;;;;;4.55;93.50;102623.56;5034649;28;20052;-49
2022/01/19 06:42:28;;;;;;;12.65;9.30;;;;;;;4.50;93.41;102618.72;5034133;28;20037;-51
2022/01/19 06:44:56;;;;;;;25.00;15.30;;;;;;;4.47;92.59;102625.34;5033722;28;20048;-54
2022/01/19 06:47:24;;;;;;;22.20;15.95;;;;;;;4.48;93.33;102615.38;5034651;28;20561;-54
2022/01/19 06:49:52;;;;;;;21.08;14.60;;;;;;;4.42;91.74;102616.09;5034092;28;20042;-52
2022/01/19 06:52:29;;;;;;;20.27;14.43;;;;;;;4.39;91.95;102606.50;5033329;28;20052;-51
2022/01/19 06:54:57;;;;;;;12.15;7.15;;;;;;;4.48;96.29;102600.00;5033284;28;20132;-55
2022/01/19 06:57:24;;;;;;;19.52;14.15;;;;;;;4.41;92.09;102600.94;5033247;28;20049;-54
2022/01/19 07:00:18;;;;;;;19.52;14.07;;;;;;;4.36;92.15;102584.44;5027816;28;20069;-55
2022/01/19 07:03:03;;;;;;;22.98;16.15;;;;;;;4.55;94.97;102588.50;5013850;28;20058;-54
2022/01/19 07:05:43;;;;;;;20.38;12.07;;;;;;;4.50;94.46;102580.94;5032733;28;20053;-55
2022/01/19 07:08:33;;;;;;;20.38;15.10;;;;;;;4.44;93.21;102587.06;5032947;28;20447;-56
2022/01/19 07:11:01;;;;;;;17.58;13.05;;;;;;;4.39;92.37;102595.69;5033052;28;20425;-55
2022/01/19 07:13:30;;;;;;;22.70;16.08;;;;;;;4.35;91.57;102591.69;5033009;28;20049;-52
2022/01/19 07:15:57;;;;;;;20.60;15.43;;;;;;;4.30;91.58;102583.31;5033440;28;20049;-53
2022/01/19 07:18:25;;;;;;;23.52;15.93;;;;;;;4.25;91.56;102583.84;5032699;28;20045;-56
2022/01/19 07:20:54;;;;;;;21.02;15.45;;;;;;;4.24;91.74;102584.88;5032540;28;20071;-55
2022/01/19 07:23:30;;;;;;;21.02;15.10;;;;;;;4.26;92.69;102572.06;4337837;28;10000438;-55
2022/01/19 07:25:57;;;;;;;22.13;14.43;;;;;;;4.29;92.39;102578.09;5032481;28;20156;-53
2022/01/19 07:28:25;;;;;;;17.85;11.80;;;;;;;4.34;93.00;102575.69;5032388;28;20120;-51
2022/01/19 07:30:53;;;;;;;17.65;12.32;;;;;;;4.40;93.29;102559.63;5030816;28;20140;-55
2022/01/19 07:33:20;;;;;;;14.95;9.48;;;;;;;4.45;94.95;102562.59;5031119;28;20061;-51
2022/01/19 07:35:51;;;;;;;14.90;9.15;;;;;;;4.63;100.00;102562.22;5045868;28;20046;-53
2022/01/19 07:38:21;;;;;;;21.60;15.60;;;;;;;4.53;94.32;102564.38;5031376;28;20046;-53
2022/01/19 07:40:50;;;;;;;19.52;12.48;;;;;;;4.41;93.35;102566.66;5030637;28;20045;-54
2022/01/19 07:43:18;;;;;;;18.40;12.60;;;;;;;4.38;93.65;102561.66;5032123;28;20080;-52
2022/01/19 07:46:07;;;;;;;22.42;15.77;;;;;;;4.34;93.09;102570.28;5031712;28;20138;-51
2022/01/19 07:48:45;;;;;;;19.42;14.57;;;;;;;4.26;92.46;102572.06;5030846;28;20045;-56
2022/01/19 07:51:33;;;;;;;21.25;15.48;;;;;;;4.19;93.06;102572.97;5032132;28;20125;-52
2022/01/19 08:08:55;;;;;;;19.67;13.02;;;;;;;4.38;94.68;102550.03;5024292;28;20053;-51
2022/01/19 08:11:23;;;;;;;19.73;12.77;;;;;;;4.35;93.95;102542.28;4994063;28;20141;-51
2022/01/19 08:19:01;;;;;;;16.15;11.48;;;;;;;4.54;97.59;102533.63;5031011;28;20069;-52
2022/01/19 08:21:33;;;;;;;16.42;11.63;;;;;;;4.51;95.91;102536.72;5030038;28;20673;-53
2022/01/19 08:24:03;;;;;;;11.48;6.63;;;;;;;4.53;97.71;102533.84;5030171;28;20046;-47
2022/01/19 08:26:31;;;;;;;19.63;12.88;;;;;;;4.43;94.55;102537.66;5030183;28;20381;-51
2022/01/19 08:29:04;;;;;;;19.23;12.32;;;;;;;4.46;95.81;102537.28;5030341;28;20045;-51
2022/01/19 08:31:34;;;;;;;18.83;11.95;;;;;;;4.44;94.58;102535.78;5029804;28;20068;-52
2022/01/19 08:34:09;;;;;;;17.30;11.43;;;;;;;4.42;94.78;102529.72;5030848;28;20133;-56
2022/01/19 08:36:55;;;;;;;15.63;11.00;;;;;;;4.40;94.82;102529.94;5030994;28;20167;-53
2022/01/19 08:39:32;;;;;;;15.85;11.60;;;;;;;4.41;94.44;102525.38;5030056;28;20046;-54
2022/01/19 08:42:00;;;;;;;17.10;11.93;;;;;;;4.38;94.66;102512.25;5029778;28;20479;-52
2022/01/19 08:44:28;;;;;;;17.33;12.63;;;;;;;4.37;94.51;102510.56;5029025;28;20045;-53
2022/01/19 08:47:06;;;;;;;16.55;11.60;;;;;;;4.48;97.06;102510.09;5029696;28;20108;-51
2022/01/19 08:50:12;;;;;;;15.90;11.68;;;;;;;4.46;95.13;102501.34;5031607;28;20506;-52
2022/01/19 08:52:50;;;;;;;12.82;8.32;;;;;;;4.53;96.54;102510.38;5029644;28;20052;-54
2022/01/19 08:55:48;;;;;;;16.63;11.07;;;;;;;4.52;95.96;102499.75;5018441;28;20149;-54
2022/01/19 08:58:15;;;;;;;15.85;9.48;;;;;;;4.54;97.15;102503.94;5028485;28;20054;-51
2022/01/19 09:00:44;;;;;;;14.13;8.82;;;;;;;4.54;98.12;102495.84;5028088;28;20053;-48
2022/01/19 09:03:14;;;;;;;19.48;11.18;;;;;;;4.58;98.47;102491.75;5028429;28;20118;-48
2022/01/19 09:05:42;;;;;;;17.10;11.80;;;;;;;4.62;98.18;102494.94;5027534;28;20137;-52
2022/01/19 09:08:10;;;;;;;18.17;12.45;;;;;;;4.60;97.10;102488.88;5027975;28;20129;-48
2022/01/19 09:10:40;;;;;;;16.35;11.77;;;;;;;4.56;95.54;102484.88;5028250;28;20060;-47
2022/01/19 09:13:09;;;;;;;15.15;11.20;;;;;;;4.56;95.32;102482.19;5028230;28;20053;-50
2022/01/19 09:15:37;;;;;;;11.20;6.75;;;;;;;4.62;99.01;102471.47;5027897;28;20642;-53
2022/01/19 09:18:04;;;;;;;17.50;12.27;;;;;;;4.64;97.60;102474.81;5028033;28;20060;-52
2022/01/19 09:20:32;;;;;;;16.60;10.10;;;;;;;4.60;97.33;102461.88;5028367;28;20048;-49
2022/01/19 09:23:00;;;;;;;15.80;11.88;;;;;;;4.56;95.97;102458.72;5028274;28;20045;-46
2022/01/19 09:25:28;;;;;;;16.38;11.43;;;;;;;4.55;95.76;102464.31;5027945;28;20504;-49
2022/01/19 09:27:55;;;;;;;13.32;9.07;;;;;;;4.52;95.75;102454.69;5027829;28;20045;-49
2022/01/19 09:30:24;;;;;;;16.42;11.80;;;;;;;4.47;94.86;102457.13;5011728;28;20052;-51
2022/01/19 09:33:06;;;;;;;16.38;12.20;;;;;;;4.39;95.07;102458.06;5015034;28;20046;-52
2022/01/19 09:36:06;;;;;;;18.83;12.38;;;;;;;4.38;95.69;102453.72;5029441;28;20049;-53
2022/01/19 09:38:36;;;;;;;22.98;12.75;;;;;;;4.36;95.24;102444.13;5030370;28;20050;-53
2022/01/19 09:41:08;;;;;;;16.13;11.75;;;;;;;4.41;95.73;102453.31;5031526;28;20061;-53
2022/01/19 09:43:35;;;;;;;17.58;12.35;;;;;;;4.42;95.17;102438.78;5035018;28;20466;-55
2022/01/19 09:46:04;;;;;;;13.88;8.93;;;;;;;4.52;97.22;102443.91;5036239;28;20049;-49
2022/01/19 09:48:33;;;;;;;16.52;11.30;;;;;;;4.63;96.54;102439.91;5036241;28;20044;-52
2022/01/19 09:51:01;;;;;;;18.98;12.55;;;;;;;4.61;95.28;102436.56;5036025;28;20053;-51
2022/01/19 10:16:59;;;;;;;15.55;11.13;;;;;;;4.69;95.98;102417.56;4992167;28;20065;-53
2022/01/19 10:19:32;;;;;;;13.93;10.23;;;;;;;4.77;98.02;102413.91;4675834;28;10000280;-53
2022/01/19 10:22:00;;;;;;;15.70;10.48;;;;;;;4.94;100.00;102403.72;5033980;28;20044;-54
2022/01/19 10:24:41;;;;;;;14.35;9.15;;;;;;;4.86;98.17;102399.28;5033387;28;20671;-52
2022/01/19 10:27:26;;;;;;;14.40;10.60;;;;;;;4.85;98.41;102394.88;5033706;28;20037;-50
2022/01/19 10:29:55;;;;;;;15.68;10.18;;;;;;;4.90;100.00;102387.03;5033689;28;20537;-49
2022/01/19 10:32:25;;;;;;;13.50;9.50;;;;;;;4.89;100.00;102386.22;5033626;28;20099;-51
2022/01/19 10:34:53;;;;;;;12.82;9.15;;;;;;;4.92;99.00;102379.59;5033241;28;20042;-55
2022/01/19 10:37:28;;;;;;;17.85;11.18;;;;;;;4.88;98.57;102383.69;5033559;28;20065;-56
2022/01/19 10:40:00;;;;;;;15.52;11.50;;;;;;;4.86;97.73;102370.41;5033346;28;20106;-52
2022/01/19 10:42:31;;;;;;;17.77;10.82;;;;;;;4.85;97.58;102375.97;5033226;28;20049;-52
2022/01/19 10:45:05;;;;;;;15.05;10.70;;;;;;;4.80;96.74;102371.16;5033089;28;20037;-52
2022/01/19 10:47:47;;;;;;;16.95;11.57;;;;;;;4.76;96.74;102371.72;5033367;28;20129;-51
2022/01/19 10:50:21;;;;;;;15.10;8.10;;;;;;;4.87;99.34;102360.41;5033625;28;20068;-51
2022/01/19 10:52:49;;;;;;;14.75;8.77;;;;;;;4.91;99.05;102359.84;5032811;28;20488;-50
2022/01/19 10:55:20;;;;;;;17.45;11.55;;;;;;;4.82;95.70;102370.97;5032226;28;20048;-50
2022/01/19 10:57:48;;;;;;;21.67;12.38;;;;;;;4.69;95.92;102364.41;5033147;28;20445;-45
2022/01/19 11:00:22;;;;;;;15.05;10.95;;;;;;;4.65;96.44;102365.78;5033929;28;20472;-52
2022/01/19 11:02:54;;;;;;;16.33;11.02;;;;;;;4.61;96.63;102356.41;5033923;28;20056;-54
2022/01/19 11:05:41;;;;;;;14.35;10.38;;;;;;;4.65;97.28;102352.31;5034604;28;20037;-51
2022/01/19 11:08:09;;;;;;;13.25;9.55;;;;;;;4.72;97.04;102336.19;5034767;28;20136;-50
2022/01/19 11:10:38;;;;;;;14.60;9.07;;;;;;;4.82;98.60;102335.88;5034606;28;20438;-54
2022/01/19 11:13:13;;;;;;;15.95;11.23;;;;;;;4.82;97.26;102333.16;5032584;28;20061;-49
2022/01/19 11:15:42;;;;;;;17.10;11.90;;;;;;;4.77;96.82;102327.50;5034465;28;20068;-51
2022/01/19 11:18:10;;;;;;;14.18;10.35;;;;;;;4.75;97.29;102324.16;5033954;28;20128;-52
2022/01/19 11:20:46;;;;;;;18.27;11.80;;;;;;;4.70;97.35;102322.84;5034435;28;20538;-52
2022/01/19 11:23:24;;;;;;;16.17;12.02;;;;;;;4.63;97.55;102327.34;5034261;28;20064;-53
2022/01/19 11:26:06;;;;;;;14.48;9.20;;;;;;;4.63;97.96;102310.31;5032989;28;20076;-51
2022/01/19 11:28:36;;;;;;;16.20;11.10;;;;;;;4.88;100.00;102305.38;5034132;28;20042;-53
2022/01/19 11:31:10;;;;;;;11.23;5.43;;;;;;;4.98;100.00;102292.41;5034227;28;20050;-51
2022/01/19 11:33:47;;;;;;;11.77;5.80;;;;;;;5.09;100.00;102288.31;5033852;28;20060;-53
2022/01/19 11:36:33;;;;;;;18.75;12.38;;;;;;;5.03;100.00;102284.53;5034251;28;20045;-51
2022/01/19 11:39:23;;;;;;;13.82;8.80;;;;;;;5.01;100.00;102283.06;5034006;28;20128;-51
2022/01/19 11:45:38;;;;;;;16.00;10.38;;;;;;;4.96;100.00;102272.00;3446340;23;10002436;-56
2022/01/19 11:48:19;;;;;;;17.10;11.50;;;;;;;4.91;100.00;102264.50;4880353;29;20042;-55
2022/01/19 12:55:32;;;;;;;13.50;9.48;;;;;;;5.55;100.00;102144.53;5184380;23;10001486;-56
2022/01/19 17:31:23;;;;;;;26.67;19.63;;;;;;;5.13;100.00;102031.06;4517549;29;10002384;-47
2022/01/19 17:33:51;;;;;;;27.42;19.02;;;;;;;5.14;100.00;102023.78;4856555;29;20052;-44
2022/01/19 17:36:18;;;;;;;26.30;18.77;;;;;;;5.19;100.00;102024.00;4857220;29;20094;-49
2022/01/19 17:38:47;;;;;;;26.85;18.35;;;;;;;5.20;100.00;102025.69;4857336;29;20084;-52
2022/01/19 17:41:15;;;;;;;22.80;17.15;;;;;;;5.21;100.00;102027.34;4857584;29;20056;-50
2022/01/19 17:43:44;;;;;;;26.02;17.83;;;;;;;5.23;100.00;102019.88;4857257;29;20394;-51
2022/01/19 17:47:15;;;;;;;21.23;14.05;;;;;;;5.25;100.00;102014.28;4858813;29;20113;-50
2022/01/19 17:49:46;;;;;;;24.23;16.88;;;;;;;5.29;100.00;102023.63;4837056;29;20703;-50
2022/01/19 17:52:15;;;;;;;21.80;16.17;;;;;;;5.28;100.00;102027.38;4838854;29;20611;-49
2022/01/19 17:54:43;;;;;;;23.27;15.88;;;;;;;5.30;100.00;102026.16;4839138;29;20053;-52
2022/01/19 17:57:13;;;;;;;23.92;16.05;;;;;;;5.32;100.00;102023.25;4838953;29;20043;-48
2022/01/19 17:59:40;;;;;;;24.88;16.63;;;;;;;5.33;100.00;102031.13;4838582;29;20050;-53
2022/01/19 18:02:09;;;;;;;24.08;16.80;;;;;;;5.35;100.00;102033.66;4839319;29;20050;-48
2022/01/19 18:04:38;;;;;;;23.88;15.93;;;;;;;5.33;100.00;102033.84;4841529;29;20065;-51
2022/01/19 18:07:05;;;;;;;21.77;15.63;;;;;;;5.35;100.00;102030.94;4842641;29;20054;-47
2022/01/19 18:09:33;;;;;;;21.50;15.93;;;;;;;5.37;100.00;102041.56;4842619;29;20046;-48
2022/01/19 18:12:00;;;;;;;22.27;16.02;;;;;;;5.35;100.00;102049.84;4842930;29;20046;-48
2022/01/19 18:14:28;;;;;;;23.23;15.90;;;;;;;5.36;100.00;102046.09;4842363;29;20046;-50
2022/01/19 18:17:05;;;;;;;22.38;16.63;;;;;;;5.40;100.00;102041.97;4842490;29;20060;-51
2022/01/19 18:19:33;;;;;;;24.83;15.93;;;;;;;5.40;100.00;102041.16;4842109;29;20057;-51
2022/01/19 18:22:04;;;;;;;26.67;17.10;;;;;;;5.41;100.00;102050.91;4842295;29;20509;-49
2022/01/19 18:24:34;;;;;;;25.95;16.88;;;;;;;5.38;100.00;102054.84;4826202;29;20042;-50
2022/01/19 18:27:04;;;;;;;22.58;16.20;;;;;;;5.38;100.00;102056.72;4842675;29;20081;-51
2022/01/19 18:29:32;;;;;;;24.30;16.20;;;;;;;5.38;100.00;102068.38;4853623;29;20862;-49
2022/01/19 18:32:00;;;;;;;21.90;14.60;;;;;;;5.43;100.00;102065.06;4860793;29;20136;-48
2022/01/19 18:34:30;;;;;;;23.02;14.13;;;;;;;5.42;100.00;102066.09;4860685;29;20046;-47
2022/01/19 18:36:58;;;;;;;21.95;13.88;;;;;;;5.44;100.00;102075.69;4860445;29;20049;-49
2022/01/19 18:39:26;;;;;;;23.23;13.73;;;;;;;5.45;100.00;102069.22;4860879;29;20041;-49
2022/01/19 18:41:56;;;;;;;26.15;13.27;;;;;;;5.46;100.00;102083.56;4860553;29;20077;-50
2022/01/19 18:44:24;;;;;;;23.63;12.98;;;;;;;5.47;100.00;102083.38;4860661;29;20049;-52
2022/01/19 18:46:51;;;;;;;20.70;11.70;;;;;;;5.49;100.00;102089.41;4860460;29;20519;-51
2022/01/19 18:49:19;;;;;;;24.20;12.57;;;;;;;5.50;100.00;102091.06;4860582;29;20041;-51
2022/01/19 18:51:46;;;;;;;20.60;11.57;;;;;;;5.53;100.00;102089.81;4860348;29;20052;-49
2022/01/19 18:54:16;;;;;;;22.38;10.88;;;;;;;5.55;100.00;102093.16;4859125;29;20052;-50
2022/01/19 18:56:43;;;;;;;22.75;10.60;;;;;;;5.57;100.00;102101.91;4860309;29;20045;-51
2022/01/19 18:59:11;;;;;;;22.02;10.00;;;;;;;5.59;100.00;102107.13;4860040;29;20046;-52
2022/01/19 19:01:45;;;;;;;28.48;11.05;;;;;;;5.60;100.00;102108.78;4860456;29;20053;-50
2022/01/19 19:04:17;;;;;;;26.60;10.05;;;;;;;5.62;100.00;102098.59;4860258;29;20537;-52
2022/01/19 19:06:46;;;;;;;30.85;10.18;;;;;;;5.64;100.00;102104.63;4859798;29;20531;-52
2022/01/19 19:09:21;;;;;;;24.95;9.05;;;;;;;5.65;100.00;102109.00;4859964;29;20053;-51
2022/01/19 19:14:22;;;;;;;22.88;8.15;;;;;;;5.65;100.00;102107.16;4858608;29;20058;-49
2022/01/19 19:16:49;;;;;;;22.98;8.43;;;;;;;5.66;100.00;102107.97;4859936;29;20457;-49
2022/01/19 19:19:17;;;;;;;21.25;8.07;;;;;;;5.66;100.00;102121.50;4859958;29;20056;-50
2022/01/19 19:21:44;;;;;;;21.20;6.88;;;;;;;5.66;100.00;102126.91;4859481;29;20102;-49
2022/01/19 19:24:13;;;;;;;24.00;7.45;;;;;;;5.66;100.00;102119.63;4859717;29;20053;-47
2022/01/19 19:26:41;;;;;;;23.27;7.72;;;;;;;5.66;100.00;102119.63;4859757;29;20078;-50
2022/01/19 19:29:08;;;;;;;21.50;6.43;;;;;;;5.67;100.00;102123.97;4859114;29;20053;-52